createdAt,value
2022-10-04T00:00:02.425Z,1018.1
2022-10-04T00:01:02.281Z,1018
2022-10-04T00:02:02.494Z,1018.1
2022-10-04T00:03:02.420Z,1018
2022-10-04T00:04:02.085Z,1018.1
2022-10-04T00:05:02.091Z,1018.1
2022-10-04T00:06:01.741Z,1018.1
2022-10-04T00:07:02.857Z,1018.1
2022-10-04T00:08:02.621Z,1018.1
2022-10-04T00:09:02.433Z,1018.1
2022-10-04T00:10:02.482Z,1018.2
2022-10-04T00:11:02.167Z,1018.1
2022-10-04T00:12:02.125Z,1018.1
2022-10-04T00:13:01.827Z,1018.1
2022-10-04T00:14:01.819Z,1018.1
2022-10-04T00:15:02.738Z,1018.1
2022-10-04T00:16:02.609Z,1018.1
2022-10-04T00:17:01.861Z,1018.1
2022-10-04T00:18:01.933Z,1018.1
2022-10-04T00:19:02.707Z,1018
2022-10-04T00:20:02.460Z,1018
2022-10-04T00:21:02.572Z,1018.1
2022-10-04T00:22:02.364Z,1018.1
2022-10-04T00:23:02.118Z,1018
2022-10-04T00:24:02.057Z,1018
2022-10-04T00:25:01.847Z,1018
2022-10-04T00:26:01.769Z,1018.1
2022-10-04T00:27:02.636Z,1018
2022-10-04T00:28:02.525Z,1018.1
2022-10-04T00:29:02.341Z,1018.1
2022-10-04T00:30:02.065Z,1018.1
2022-10-04T00:31:02.315Z,1018.1
2022-10-04T00:32:02.459Z,1018.1
2022-10-04T00:33:02.204Z,1018
2022-10-04T00:34:02.152Z,1018
2022-10-04T00:35:01.875Z,1018.1
2022-10-04T00:36:01.741Z,1018
2022-10-04T00:37:02.689Z,1018
2022-10-04T00:38:02.451Z,1018
2022-10-04T00:39:02.421Z,1018
2022-10-04T00:40:02.261Z,1018
2022-10-04T00:41:02.004Z,1018
2022-10-04T00:42:02.105Z,1018
2022-10-04T00:43:01.881Z,1018
2022-10-04T00:44:02.713Z,1017.9
2022-10-04T00:45:02.503Z,1017.9
2022-10-04T00:46:02.706Z,1018
2022-10-04T00:47:02.718Z,1017.9
2022-10-04T00:48:02.510Z,1017.8
2022-10-04T00:49:02.418Z,1017.9
2022-10-04T00:50:02.388Z,1017.9
2022-10-04T00:51:02.071Z,1017.9
2022-10-04T00:52:02.086Z,1017.9
2022-10-04T00:53:01.743Z,1017.9
2022-10-04T00:54:02.684Z,1017.9
2022-10-04T00:55:02.447Z,1017.9
2022-10-04T00:56:02.401Z,1017.8
2022-10-04T00:57:02.341Z,1017.8
2022-10-04T00:58:02.022Z,1017.8
2022-10-04T00:59:02.050Z,1017.9
2022-10-04T01:00:01.805Z,1017.8
2022-10-04T01:01:02.877Z,1017.9
2022-10-04T01:02:01.872Z,1017.9
2022-10-04T01:03:02.696Z,1017.9
2022-10-04T01:04:02.432Z,1017.9
2022-10-04T01:05:02.441Z,1018
2022-10-04T01:06:02.264Z,1018
2022-10-04T01:07:01.979Z,1018
2022-10-04T01:08:01.925Z,1017.9
2022-10-04T01:09:01.681Z,1017.9
2022-10-04T01:10:02.669Z,1017.9
2022-10-04T01:11:02.618Z,1017.9
2022-10-04T01:12:02.344Z,1017.9
2022-10-04T01:13:02.125Z,1017.9
2022-10-04T01:14:02.118Z,1017.9
2022-10-04T01:15:01.844Z,1017.9
2022-10-04T01:16:02.006Z,1017.9
2022-10-04T01:17:01.884Z,1017.8
2022-10-04T01:18:09.138Z,1017.9
2022-10-04T01:19:01.951Z,1017.9
2022-10-04T01:20:01.869Z,1017.8
2022-10-04T01:21:01.683Z,1017.9
2022-10-04T01:22:02.756Z,1017.9
2022-10-04T01:23:02.429Z,1017.9
2022-10-04T01:24:02.351Z,1017.9
2022-10-04T01:25:02.108Z,1017.8
2022-10-04T01:26:02.073Z,1017.8
2022-10-04T01:27:01.830Z,1017.8
2022-10-04T01:28:02.126Z,1017.8
2022-10-04T01:29:01.802Z,1017.8
2022-10-04T01:30:01.880Z,1017.8
2022-10-04T01:31:02.839Z,1017.8
2022-10-04T01:32:02.605Z,1017.8
2022-10-04T01:33:02.542Z,1017.8
2022-10-04T01:34:02.272Z,1017.8
2022-10-04T01:35:02.327Z,1017.8
2022-10-04T01:36:02.021Z,1017.9
2022-10-04T01:37:02.001Z,1017.8
2022-10-04T01:38:01.745Z,1017.8
2022-10-04T01:39:02.774Z,1017.8
2022-10-04T01:40:02.462Z,1017.8
2022-10-04T01:41:02.430Z,1017.7
2022-10-04T01:42:02.417Z,1017.6
2022-10-04T01:43:02.095Z,1017.7
2022-10-04T01:44:01.992Z,1017.7
2022-10-04T01:45:01.797Z,1017.8
2022-10-04T01:46:02.941Z,1017.8
2022-10-04T01:47:01.741Z,1017.8
2022-10-04T01:48:02.827Z,1017.8
2022-10-04T01:49:02.515Z,1017.8
2022-10-04T01:50:02.623Z,1017.8
2022-10-04T01:51:02.274Z,1017.8
2022-10-04T01:52:02.224Z,1017.8
2022-10-04T01:53:02.019Z,1017.8
2022-10-04T01:54:02.053Z,1017.8
2022-10-04T01:55:01.717Z,1017.8
2022-10-04T01:56:02.772Z,1017.8
2022-10-04T01:57:02.454Z,1017.8
2022-10-04T01:58:02.556Z,1017.8
2022-10-04T01:59:02.216Z,1017.8
2022-10-04T02:00:02.215Z,1017.8
2022-10-04T02:01:02.137Z,1017.8
2022-10-04T02:02:02.331Z,1017.8
2022-10-04T02:03:02.260Z,1017.8
2022-10-04T02:04:02.050Z,1017.8
2022-10-04T02:05:02.097Z,1017.8
2022-10-04T02:06:01.751Z,1017.7
2022-10-04T02:07:02.698Z,1017.7
2022-10-04T02:08:02.473Z,1017.8
2022-10-04T02:09:02.521Z,1017.7
2022-10-04T02:10:02.205Z,1017.7
2022-10-04T02:11:02.198Z,1017.7
2022-10-04T02:12:01.912Z,1017.7
2022-10-04T02:13:01.988Z,1017.6
2022-10-04T02:14:01.659Z,1017.7
2022-10-04T02:15:02.733Z,1017.7
2022-10-04T02:16:02.525Z,1017.7
2022-10-04T02:17:01.698Z,1017.7
2022-10-04T02:18:02.670Z,1017.8
2022-10-04T02:19:02.422Z,1017.9
2022-10-04T02:20:02.499Z,1017.8
2022-10-04T02:21:02.183Z,1017.8
2022-10-04T02:22:02.257Z,1017.8
2022-10-04T02:23:01.879Z,1017.7
2022-10-04T02:24:01.954Z,1017.9
2022-10-04T02:25:02.847Z,1017.8
2022-10-04T02:26:02.505Z,1017.7
2022-10-04T02:27:02.593Z,1017.8
2022-10-04T02:28:02.561Z,1017.8
2022-10-04T02:29:02.523Z,1017.8
2022-10-04T02:30:02.305Z,1017.8
2022-10-04T02:31:02.194Z,1017.8
2022-10-04T02:32:02.338Z,1017.8
2022-10-04T02:33:02.334Z,1017.8
2022-10-04T02:34:02.062Z,1017.7
2022-10-04T02:35:02.104Z,1017.8
2022-10-04T02:36:01.744Z,1017.8
2022-10-04T02:37:02.810Z,1017.8
2022-10-04T02:38:02.500Z,1017.8
2022-10-04T02:39:02.414Z,1017.7
2022-10-04T02:40:02.309Z,1017.8
2022-10-04T02:41:02.034Z,1017.7
2022-10-04T02:42:01.986Z,1017.7
2022-10-04T02:43:01.722Z,1017.7
2022-10-04T02:44:02.742Z,1017.7
2022-10-04T02:45:02.501Z,1017.7
2022-10-04T02:46:02.637Z,1017.8
2022-10-04T02:47:02.464Z,1017.8
2022-10-04T02:48:02.195Z,1017.8
2022-10-04T02:49:02.153Z,1017.8
2022-10-04T02:50:01.914Z,1017.8
2022-10-04T02:51:01.795Z,1017.8
2022-10-04T02:52:02.754Z,1017.7
2022-10-04T02:53:02.432Z,1017.7
2022-10-04T02:54:04.271Z,1017.8
2022-10-04T02:55:01.948Z,1017.8
2022-10-04T02:56:01.974Z,1017.8
2022-10-04T02:57:01.681Z,1017.8
2022-10-04T02:58:02.772Z,1017.8
2022-10-04T02:59:02.440Z,1017.8
2022-10-04T03:00:02.527Z,1017.8
2022-10-04T03:01:02.708Z,1017.9
2022-10-04T03:02:02.515Z,1017.8
2022-10-04T03:03:02.324Z,1017.8
2022-10-04T03:04:02.070Z,1017.9
2022-10-04T03:05:02.118Z,1017.8
2022-10-04T03:06:01.770Z,1017.9
2022-10-04T03:07:02.844Z,1017.9
2022-10-04T03:08:02.494Z,1017.9
2022-10-04T03:09:02.516Z,1017.8
2022-10-04T03:10:02.361Z,1017.9
2022-10-04T03:11:02.103Z,1017.9
2022-10-04T03:12:02.202Z,1018
2022-10-04T03:13:01.870Z,1017.9
2022-10-04T03:14:01.808Z,1017.9
2022-10-04T03:15:02.647Z,1017.8
2022-10-04T03:16:02.667Z,1017.9
2022-10-04T03:17:01.683Z,1017.9
2022-10-04T03:18:02.676Z,1017.9
2022-10-04T03:19:02.415Z,1018
2022-10-04T03:20:02.425Z,1017.9
2022-10-04T03:21:02.394Z,1017.9
2022-10-04T03:22:02.054Z,1017.9
2022-10-04T03:23:01.969Z,1017.9
2022-10-04T03:24:01.713Z,1017.9
2022-10-04T03:25:02.771Z,1017.8
2022-10-04T03:26:02.487Z,1017.8
2022-10-04T03:27:02.507Z,1017.8
2022-10-04T03:28:02.627Z,1017.8
2022-10-04T03:29:02.444Z,1017.8
2022-10-04T03:30:02.419Z,1017.7
2022-10-04T03:31:02.221Z,1017.9
2022-10-04T03:32:02.083Z,1017.8
2022-10-04T03:33:02.109Z,1017.8
2022-10-04T03:34:01.755Z,1017.9
2022-10-04T03:35:02.718Z,1017.8
2022-10-04T03:36:02.493Z,1017.9
2022-10-04T03:37:02.578Z,1017.8
2022-10-04T03:38:02.501Z,1017.9
2022-10-04T03:39:02.272Z,1017.9
2022-10-04T03:40:02.290Z,1017.8
2022-10-04T03:41:01.984Z,1017.8
2022-10-04T03:42:01.906Z,1017.8
2022-10-04T03:43:01.723Z,1017.8
2022-10-04T03:44:05.565Z,1017.9
2022-10-04T03:45:02.243Z,1017.8
2022-10-04T03:46:02.645Z,1017.9
2022-10-04T03:47:02.471Z,1017.8
2022-10-04T03:48:02.160Z,1017.8
2022-10-04T03:49:02.184Z,1017.9
2022-10-04T03:50:01.854Z,1017.9
2022-10-04T03:51:01.883Z,1017.9
2022-10-04T03:52:02.783Z,1017.9
2022-10-04T03:53:02.451Z,1017.9
2022-10-04T03:54:02.405Z,1017.9
2022-10-04T03:55:02.446Z,1017.8
2022-10-04T03:56:05.336Z,1018
2022-10-04T03:57:01.999Z,1017.9
2022-10-04T03:58:01.926Z,1017.9
2022-10-04T03:59:01.698Z,1017.9
2022-10-04T04:00:02.655Z,1017.9
2022-10-04T04:01:02.602Z,1017.9
2022-10-04T04:02:02.043Z,1017.8
2022-10-04T04:03:01.945Z,1018
2022-10-04T04:04:02.798Z,1017.9
2022-10-04T04:05:02.507Z,1017.9
2022-10-04T04:06:02.466Z,1017.9
2022-10-04T04:07:02.292Z,1017.9
2022-10-04T04:08:02.007Z,1017.9
2022-10-04T04:09:02.050Z,1017.9
2022-10-04T04:10:01.691Z,1017.9
2022-10-04T04:11:02.630Z,1017.8
2022-10-04T04:12:02.456Z,1017.9
2022-10-04T04:13:02.344Z,1017.9
2022-10-04T04:14:02.349Z,1018
2022-10-04T04:15:02.031Z,1018
2022-10-04T04:16:02.301Z,1018
2022-10-04T04:17:02.034Z,1018
2022-10-04T04:18:01.966Z,1018.1
2022-10-04T04:19:01.703Z,1018
2022-10-04T04:20:07.960Z,1018
2022-10-04T04:21:02.639Z,1018
2022-10-04T04:22:02.518Z,1018.1
2022-10-04T04:23:02.371Z,1018
2022-10-04T04:24:02.339Z,1018
2022-10-04T04:25:02.025Z,1018
2022-10-04T04:26:02.028Z,1018
2022-10-04T04:27:01.770Z,1018
2022-10-04T04:28:03.016Z,1018
2022-10-04T04:29:01.693Z,1018
2022-10-04T04:30:02.819Z,1018
2022-10-04T04:31:02.494Z,1018
2022-10-04T04:32:01.862Z,1017.9
2022-10-04T04:33:02.691Z,1017.9
2022-10-04T04:34:02.433Z,1018
2022-10-04T04:35:02.472Z,1018
2022-10-04T04:36:02.239Z,1018
2022-10-04T04:37:02.003Z,1018
2022-10-04T04:38:01.901Z,1018
2022-10-04T04:39:01.698Z,1018
2022-10-04T04:40:02.643Z,1018
2022-10-04T04:41:02.390Z,1018.1
2022-10-04T04:42:02.467Z,1018.1
2022-10-04T04:43:02.134Z,1018.1
2022-10-04T04:44:02.048Z,1018.1
2022-10-04T04:45:02.052Z,1018.1
2022-10-04T04:46:28.494Z,1018.1
2022-10-04T04:47:02.546Z,1018.1
2022-10-04T04:48:02.211Z,1018.1
2022-10-04T04:49:02.243Z,1018.1
2022-10-04T04:50:01.947Z,1018.1
2022-10-04T04:51:01.941Z,1018.1
2022-10-04T04:52:02.820Z,1018.2
2022-10-04T04:53:02.490Z,1018.2
2022-10-04T04:54:02.560Z,1018.2
2022-10-04T04:55:02.232Z,1018.1
2022-10-04T04:56:05.618Z,1018.2
2022-10-04T04:57:02.382Z,1018.2
2022-10-04T04:58:02.150Z,1018.3
2022-10-04T04:59:02.185Z,1018.3
2022-10-04T05:00:01.861Z,1018.2
2022-10-04T05:01:02.007Z,1018.3
2022-10-04T05:02:02.399Z,1018.2
2022-10-04T05:03:02.098Z,1018.2
2022-10-04T05:04:02.067Z,1018.3
2022-10-04T05:05:01.778Z,1018.3
2022-10-04T05:06:01.840Z,1018.3
2022-10-04T05:07:02.674Z,1018.4
2022-10-04T05:08:02.415Z,1018.4
2022-10-04T05:09:02.442Z,1018.4
2022-10-04T05:10:02.271Z,1018.4
2022-10-04T05:11:01.989Z,1018.4
2022-10-04T05:12:01.915Z,1018.5
2022-10-04T05:13:01.711Z,1018.4
2022-10-04T05:14:02.646Z,1018.4
2022-10-04T05:15:02.405Z,1018.4
2022-10-04T05:16:02.577Z,1018.5
2022-10-04T05:17:02.511Z,1018.5
2022-10-04T05:18:02.457Z,1018.5
2022-10-04T05:19:02.170Z,1018.5
2022-10-04T05:20:01.919Z,1018.5
2022-10-04T05:21:01.864Z,1018.5
2022-10-04T05:22:02.737Z,1018.6
2022-10-04T05:23:02.504Z,1018.6
2022-10-04T05:24:02.442Z,1018.6
2022-10-04T05:25:02.306Z,1018.5
2022-10-04T05:26:02.002Z,1018.6
2022-10-04T05:27:01.855Z,1018.6
2022-10-04T05:28:01.805Z,1018.6
2022-10-04T05:29:02.661Z,1018.6
2022-10-04T05:30:02.059Z,1018.5
2022-10-04T05:31:02.048Z,1018.6
2022-10-04T05:32:02.324Z,1018.6
2022-10-04T05:33:02.010Z,1018.6
2022-10-04T05:34:01.974Z,1018.6
2022-10-04T05:35:01.747Z,1018.6
2022-10-04T05:36:02.666Z,1018.6
2022-10-04T05:37:02.453Z,1018.6
2022-10-04T05:38:02.412Z,1018.7
2022-10-04T05:39:02.255Z,1018.7
2022-10-04T05:40:01.971Z,1018.7
2022-10-04T05:41:01.950Z,1018.8
2022-10-04T05:42:01.712Z,1018.7
2022-10-04T05:43:02.675Z,1018.8
2022-10-04T05:44:02.387Z,1018.8
2022-10-04T05:45:02.372Z,1018.8
2022-10-04T05:46:02.641Z,1018.8
2022-10-04T05:47:02.285Z,1018.8
2022-10-04T05:48:02.202Z,1018.8
2022-10-04T05:49:01.985Z,1018.8
2022-10-04T05:50:02.125Z,1018.9
2022-10-04T05:51:01.783Z,1018.8
2022-10-04T05:52:01.758Z,1018.8
2022-10-04T05:53:02.640Z,1018.8
2022-10-04T05:54:02.388Z,1018.9
2022-10-04T05:55:02.344Z,1018.8
2022-10-04T05:56:02.057Z,1018.9
2022-10-04T05:57:01.959Z,1018.9
2022-10-04T05:58:01.852Z,1018.9
2022-10-04T05:59:02.728Z,1019
2022-10-04T06:00:05.192Z,1018.9
2022-10-04T06:01:01.939Z,1019
2022-10-04T06:02:02.738Z,1019
2022-10-04T06:03:02.589Z,1019
2022-10-04T06:04:02.309Z,1019
2022-10-04T06:05:02.261Z,1019
2022-10-04T06:06:01.959Z,1019
2022-10-04T06:07:01.909Z,1019.1
2022-10-04T06:08:01.679Z,1019
2022-10-04T06:09:02.635Z,1019
2022-10-04T06:10:02.414Z,1019.1
2022-10-04T06:11:02.365Z,1019.1
2022-10-04T06:12:02.129Z,1019.1
2022-10-04T06:13:02.060Z,1019.1
2022-10-04T06:14:01.779Z,1019.1
2022-10-04T06:15:01.692Z,1019.1
2022-10-04T06:16:02.626Z,1019.2
2022-10-04T06:17:02.542Z,1019.1
2022-10-04T06:18:02.407Z,1019.1
2022-10-04T06:19:02.270Z,1019.2
2022-10-04T06:20:01.996Z,1019.2
2022-10-04T06:21:01.909Z,1019.2
2022-10-04T06:22:01.715Z,1019.2
2022-10-04T06:23:02.649Z,1019.2
2022-10-04T06:24:02.370Z,1019.2
2022-10-04T06:25:02.387Z,1019.2
2022-10-04T06:26:02.237Z,1019.3
2022-10-04T06:27:02.015Z,1019.3
2022-10-04T06:28:02.090Z,1019.3
2022-10-04T06:29:01.737Z,1019.3
2022-10-04T06:30:02.754Z,1019.3
2022-10-04T06:31:02.793Z,1019.3
2022-10-04T06:32:02.451Z,1019.4
2022-10-04T06:33:02.438Z,1019.3
2022-10-04T06:34:02.304Z,1019.4
2022-10-04T06:35:02.052Z,1019.4
2022-10-04T06:36:01.986Z,1019.3
2022-10-04T06:37:01.750Z,1019.4
2022-10-04T06:38:02.681Z,1019.4
2022-10-04T06:39:04.899Z,1019.4
2022-10-04T06:40:02.557Z,1019.4
2022-10-04T06:41:02.533Z,1019.4
2022-10-04T06:42:02.310Z,1019.5
2022-10-04T06:43:02.232Z,1019.4
2022-10-04T06:44:01.930Z,1019.5
2022-10-04T06:45:01.939Z,1019.4
2022-10-04T06:46:01.915Z,1019.4
2022-10-04T06:47:01.810Z,1019.5
2022-10-04T06:48:01.799Z,1019.5
2022-10-04T06:49:02.618Z,1019.5
2022-10-04T06:50:02.432Z,1019.5
2022-10-04T06:51:02.379Z,1019.5
2022-10-04T06:52:02.241Z,1019.5
2022-10-04T06:53:02.011Z,1019.5
2022-10-04T06:54:01.955Z,1019.5
2022-10-04T06:55:01.687Z,1019.5
2022-10-04T06:56:02.661Z,1019.5
2022-10-04T06:57:02.396Z,1019.6
2022-10-04T06:58:02.360Z,1019.6
2022-10-04T06:59:02.061Z,1019.6
2022-10-04T07:00:02.054Z,1019.7
2022-10-04T07:01:01.967Z,1019.6
2022-10-04T07:02:02.346Z,1019.7
2022-10-04T07:03:02.173Z,1019.7
2022-10-04T07:04:01.847Z,1019.8
2022-10-04T07:05:10.076Z,1019.8
2022-10-04T07:06:01.778Z,1019.7
2022-10-04T07:07:02.715Z,1019.7
2022-10-04T07:08:02.469Z,1019.8
2022-10-04T07:09:02.467Z,1019.8
2022-10-04T07:10:02.388Z,1019.8
2022-10-04T07:11:02.150Z,1019.8
2022-10-04T07:12:02.098Z,1019.8
2022-10-04T07:13:01.765Z,1019.8
2022-10-04T07:14:01.725Z,1019.8
2022-10-04T07:15:02.654Z,1019.7
2022-10-04T07:16:02.658Z,1019.7
2022-10-04T07:17:01.700Z,1019.8
2022-10-04T07:18:02.696Z,1019.8
2022-10-04T07:19:02.455Z,1019.8
2022-10-04T07:20:02.383Z,1019.8
2022-10-04T07:21:02.258Z,1019.8
2022-10-04T07:22:02.038Z,1019.8
2022-10-04T07:23:01.954Z,1019.8
2022-10-04T07:24:01.679Z,1019.9
2022-10-04T07:25:02.672Z,1019.9
2022-10-04T07:26:02.384Z,1019.8
2022-10-04T07:27:02.397Z,1019.9
2022-10-04T07:28:02.393Z,1019.9
2022-10-04T07:29:02.100Z,1019.9
2022-10-04T07:30:02.076Z,1019.9
2022-10-04T07:31:02.032Z,1019.9
2022-10-04T07:32:01.896Z,1019.9
2022-10-04T07:33:01.846Z,1019.9
2022-10-04T07:34:02.755Z,1019.9
2022-10-04T07:35:02.475Z,1019.9
2022-10-04T07:36:02.441Z,1019.9
2022-10-04T07:37:02.327Z,1019.9
2022-10-04T07:38:02.089Z,1019.9
2022-10-04T07:39:02.042Z,1019.9
2022-10-04T07:40:01.790Z,1020
2022-10-04T07:41:02.677Z,1020
2022-10-04T07:42:02.476Z,1020
2022-10-04T07:43:02.457Z,1019.9
2022-10-04T07:44:02.308Z,1020
2022-10-04T07:45:02.033Z,1019.9
2022-10-04T07:46:02.071Z,1020
2022-10-04T07:47:01.931Z,1020
2022-10-04T07:48:01.843Z,1020
2022-10-04T07:49:01.646Z,1020
2022-10-04T07:50:02.630Z,1020
2022-10-04T07:51:02.365Z,1020
2022-10-04T07:52:02.263Z,1020
2022-10-04T07:53:09.951Z,1020.1
2022-10-04T07:54:01.670Z,1020.1
2022-10-04T07:55:02.680Z,1020
2022-10-04T07:56:02.415Z,1020
2022-10-04T07:57:02.383Z,1020.1
2022-10-04T07:58:02.067Z,1020
2022-10-04T07:59:01.970Z,1020.1
2022-10-04T08:00:01.769Z,1020.1
2022-10-04T08:01:02.658Z,1020.1
2022-10-04T08:02:02.745Z,1020.1
2022-10-04T08:03:02.762Z,1020.1
2022-10-04T08:04:02.431Z,1020.1
2022-10-04T08:05:02.360Z,1020.1
2022-10-04T08:06:02.274Z,1020.1
2022-10-04T08:07:02.056Z,1020.1
2022-10-04T08:08:01.993Z,1020.1
2022-10-04T08:09:01.748Z,1020.1
2022-10-04T08:10:02.740Z,1020.1
2022-10-04T08:11:02.489Z,1020
2022-10-04T08:12:02.554Z,1020.1
2022-10-04T08:13:02.249Z,1020.1
2022-10-04T08:14:02.036Z,1020.1
2022-10-04T08:15:01.986Z,1020.1
2022-10-04T08:16:01.902Z,1020.1
2022-10-04T08:17:02.104Z,1020.1
2022-10-04T08:18:02.068Z,1020.2
2022-10-04T08:19:01.750Z,1020.1
2022-10-04T08:20:02.722Z,1020.2
2022-10-04T08:21:02.509Z,1020.1
2022-10-04T08:22:02.479Z,1020.2
2022-10-04T08:23:02.380Z,1020.2
2022-10-04T08:24:02.065Z,1020.2
2022-10-04T08:25:02.049Z,1020.2
2022-10-04T08:26:01.727Z,1020.2
2022-10-04T08:27:02.698Z,1020.2
2022-10-04T08:28:02.573Z,1020.2
2022-10-04T08:29:02.354Z,1020.2
2022-10-04T08:30:02.315Z,1020.2
2022-10-04T08:31:02.349Z,1020.2
2022-10-04T08:32:05.970Z,1020.3
2022-10-04T08:33:02.751Z,1020.3
2022-10-04T08:34:02.512Z,1020.3
2022-10-04T08:35:02.464Z,1020.3
2022-10-04T08:36:02.263Z,1020.3
2022-10-04T08:37:01.972Z,1020.3
2022-10-04T08:38:02.063Z,1020.4
2022-10-04T08:39:01.735Z,1020.4
2022-10-04T08:40:02.691Z,1020.4
2022-10-04T08:41:02.593Z,1020.4
2022-10-04T08:42:02.424Z,1020.4
2022-10-04T08:43:02.286Z,1020.4
2022-10-04T08:44:02.032Z,1020.4
2022-10-04T08:45:02.017Z,1020.4
2022-10-04T08:46:01.997Z,1020.4
2022-10-04T08:47:02.102Z,1020.4
2022-10-04T08:48:01.996Z,1020.4
2022-10-04T08:49:01.725Z,1020.4
2022-10-04T08:50:02.713Z,1020.4
2022-10-04T08:51:02.497Z,1020.4
2022-10-04T08:52:02.433Z,1020.3
2022-10-04T08:53:02.310Z,1020.4
2022-10-04T08:54:02.066Z,1020.4
2022-10-04T08:55:02.135Z,1020.5
2022-10-04T08:56:01.759Z,1020.4
2022-10-04T08:57:02.701Z,1020.4
2022-10-04T08:58:02.507Z,1020.5
2022-10-04T08:59:02.492Z,1020.4
2022-10-04T09:00:02.343Z,1020.4
2022-10-04T09:01:02.296Z,1020.5
2022-10-04T09:02:02.576Z,1020.5
2022-10-04T09:03:02.815Z,1020.4
2022-10-04T09:04:02.513Z,1020.4
2022-10-04T09:05:02.491Z,1020.4
2022-10-04T09:06:02.374Z,1020.5
2022-10-04T09:07:02.099Z,1020.5
2022-10-04T09:08:02.037Z,1020.5
2022-10-04T09:09:01.903Z,1020.5
2022-10-04T09:10:01.658Z,1020.5
2022-10-04T09:11:02.631Z,1020.6
2022-10-04T09:12:02.370Z,1020.6
2022-10-04T09:13:02.265Z,1020.6
2022-10-04T09:14:02.008Z,1020.6
2022-10-04T09:15:01.929Z,1020.5
2022-10-04T09:16:01.840Z,1020.5
2022-10-04T09:17:02.017Z,1020.6
2022-10-04T09:18:02.012Z,1020.6
2022-10-04T09:19:01.723Z,1020.6
2022-10-04T09:20:39.756Z,1020.6
2022-10-04T09:21:02.622Z,1020.6
2022-10-04T09:22:02.574Z,1020.6
2022-10-04T09:23:06.939Z,1020.5
2022-10-04T09:24:02.611Z,1020.6
2022-10-04T09:25:02.530Z,1020.6
2022-10-04T09:26:02.419Z,1020.7
2022-10-04T09:27:02.221Z,1020.6
2022-10-04T09:28:02.345Z,1020.7
2022-10-04T09:29:05.639Z,1020.7
2022-10-04T09:30:02.336Z,1020.7
2022-10-04T09:31:02.583Z,1020.7
2022-10-04T09:32:02.583Z,1020.7
2022-10-04T09:33:02.292Z,1020.7
2022-10-04T09:34:02.280Z,1020.7
2022-10-04T09:35:01.995Z,1020.7
2022-10-04T09:36:01.942Z,1020.7
2022-10-04T09:37:01.742Z,1020.7
2022-10-04T09:38:02.649Z,1020.7
2022-10-04T09:39:31.313Z,1020.7
2022-10-04T09:40:02.073Z,1020.8
2022-10-04T09:41:02.009Z,1020.7
2022-10-04T09:42:01.796Z,1020.7
2022-10-04T09:43:02.735Z,1020.9
2022-10-04T09:44:02.491Z,1020.7
2022-10-04T09:45:02.446Z,1020.8
2022-10-04T09:46:02.524Z,1020.7
2022-10-04T09:47:02.731Z,1020.8
2022-10-04T09:48:02.486Z,1020.8
2022-10-04T09:49:02.326Z,1020.8
2022-10-04T09:50:02.256Z,1020.8
2022-10-04T09:51:02.000Z,1020.7
2022-10-04T09:52:01.909Z,1020.8
2022-10-04T09:53:01.700Z,1020.8
2022-10-04T09:54:02.683Z,1020.8
2022-10-04T09:55:02.469Z,1020.9
2022-10-04T09:56:02.415Z,1020.9
2022-10-04T09:57:02.115Z,1020.8
2022-10-04T09:58:02.072Z,1020.9
2022-10-04T09:59:01.834Z,1020.9
2022-10-04T10:00:01.800Z,1021
2022-10-04T10:01:02.656Z,1020.9
2022-10-04T10:02:02.566Z,1021
2022-10-04T10:03:02.616Z,1021
2022-10-04T10:04:02.438Z,1020.9
2022-10-04T10:05:02.222Z,1021
2022-10-04T10:06:02.163Z,1021
2022-10-04T10:07:01.875Z,1021
2022-10-04T10:08:01.872Z,1021
2022-10-04T10:09:02.653Z,1021
2022-10-04T10:10:02.454Z,1021
2022-10-04T10:11:02.345Z,1021
2022-10-04T10:12:02.236Z,1021.1
2022-10-04T10:13:01.916Z,1021.1
2022-10-04T10:14:01.864Z,1021.1
2022-10-04T10:15:01.667Z,1021.1
2022-10-04T10:16:02.808Z,1021.1
2022-10-04T10:17:01.850Z,1021.1
2022-10-04T10:18:01.816Z,1021.1
2022-10-04T10:19:02.622Z,1021.2
2022-10-04T10:20:02.443Z,1021.1
2022-10-04T10:21:02.412Z,1021.2
2022-10-04T10:22:02.288Z,1021.2
2022-10-04T10:23:02.008Z,1021.1
2022-10-04T10:24:01.944Z,1021.2
2022-10-04T10:25:01.681Z,1021.1
2022-10-04T10:26:02.617Z,1021.1
2022-10-04T10:27:02.450Z,1021.1
2022-10-04T10:28:02.676Z,1021.2
2022-10-04T10:29:02.453Z,1021.1
2022-10-04T10:30:02.179Z,1021.1
2022-10-04T10:31:02.375Z,1021.1
2022-10-04T10:32:01.750Z,1021.1
2022-10-04T10:33:02.877Z,1021.1
2022-10-04T10:34:02.570Z,1021.1
2022-10-04T10:35:02.516Z,1021.1
2022-10-04T10:36:02.272Z,1021.1
2022-10-04T10:37:02.246Z,1021.2
2022-10-04T10:38:05.326Z,1021.3
2022-10-04T10:39:02.000Z,1021.2
2022-10-04T10:40:02.009Z,1021.2
2022-10-04T10:41:01.714Z,1021.2
2022-10-04T10:42:02.711Z,1021.2
2022-10-04T10:43:02.448Z,1021.2
2022-10-04T10:44:02.424Z,1021.1
2022-10-04T10:45:02.243Z,1021.2
2022-10-04T10:46:02.140Z,1021.2
2022-10-04T10:47:02.471Z,1021.1
2022-10-04T10:48:02.238Z,1021.2
2022-10-04T10:49:02.037Z,1021.2
2022-10-04T10:50:02.151Z,1021.2
2022-10-04T10:51:01.825Z,1021.2
2022-10-04T10:52:01.792Z,1021.2
2022-10-04T10:53:02.639Z,1021.2
2022-10-04T10:54:02.359Z,1021.1
2022-10-04T10:55:02.401Z,1021.2
2022-10-04T10:56:02.088Z,1021.2
2022-10-04T10:57:01.957Z,1021.3
2022-10-04T10:58:01.771Z,1021.2
2022-10-04T10:59:02.653Z,1021.2
2022-10-04T11:00:02.477Z,1021.2
2022-10-04T11:01:02.378Z,1021.3
2022-10-04T11:02:02.603Z,1021.2
2022-10-04T11:03:18.235Z,1021.3
2022-10-04T11:04:02.408Z,1021.3
2022-10-04T11:05:02.162Z,1021.3
2022-10-04T11:06:01.945Z,1021.3
2022-10-04T11:07:01.828Z,1021.3
2022-10-04T11:08:01.669Z,1021.3
2022-10-04T11:09:02.587Z,1021.3
2022-10-04T11:10:02.443Z,1021.3
2022-10-04T11:11:02.310Z,1021.2
2022-10-04T11:12:02.161Z,1021.2
2022-10-04T11:13:02.016Z,1021.2
2022-10-04T11:14:01.901Z,1021.3
2022-10-04T11:15:01.680Z,1021.2
2022-10-04T11:16:02.862Z,1021.2
2022-10-04T11:17:02.348Z,1021.2
2022-10-04T11:18:02.283Z,1021.2
2022-10-04T11:19:02.082Z,1021.2
2022-10-04T11:20:01.938Z,1021.3
2022-10-04T11:21:01.720Z,1021.3
2022-10-04T11:22:02.612Z,1021.3
2022-10-04T11:23:02.536Z,1021.3
2022-10-04T11:24:02.378Z,1021.3
2022-10-04T11:25:02.207Z,1021.3
2022-10-04T11:26:02.017Z,1021.4
2022-10-04T11:27:01.882Z,1021.4
2022-10-04T11:28:01.874Z,1021.3
2022-10-04T11:29:02.615Z,1021.3
2022-10-04T11:30:02.473Z,1021.4
2022-10-04T11:31:02.542Z,1021.3
2022-10-04T11:32:02.547Z,1021.4
2022-10-04T11:33:02.347Z,1021.4
2022-10-04T11:34:02.190Z,1021.3
2022-10-04T11:35:02.079Z,1021.3
2022-10-04T11:36:01.867Z,1021.4
2022-10-04T11:37:01.678Z,1021.4
2022-10-04T11:38:02.648Z,1021.4
2022-10-04T11:39:02.615Z,1021.4
2022-10-04T11:40:02.561Z,1021.4
2022-10-04T11:41:02.234Z,1021.4
2022-10-04T11:42:02.179Z,1021.5
2022-10-04T11:43:01.964Z,1021.4
2022-10-04T11:44:01.913Z,1021.4
2022-10-04T11:45:01.628Z,1021.4
2022-10-04T11:46:08.611Z,1021.4
2022-10-04T11:47:02.244Z,1021.4
2022-10-04T11:48:02.069Z,1021.4
2022-10-04T11:49:01.776Z,1021.4
2022-10-04T11:50:02.659Z,1021.4
2022-10-04T11:51:02.435Z,1021.4
2022-10-04T11:52:03.165Z,1021.4
2022-10-04T11:53:01.795Z,1021.4
2022-10-04T11:54:01.747Z,1021.5
2022-10-04T11:55:02.652Z,1021.4
2022-10-04T11:56:02.378Z,1021.4
2022-10-04T11:57:02.389Z,1021.4
2022-10-04T11:58:02.110Z,1021.4
2022-10-04T11:59:02.016Z,1021.4
2022-10-04T12:00:01.767Z,1021.4
2022-10-04T12:01:02.748Z,1021.5
2022-10-04T12:02:02.525Z,1021.4
2022-10-04T12:03:02.518Z,1021.4
2022-10-04T12:04:02.627Z,1021.4
2022-10-04T12:05:02.551Z,1021.4
2022-10-04T12:06:02.328Z,1021.4
2022-10-04T12:07:02.130Z,1021.4
2022-10-04T12:08:02.090Z,1021.4
2022-10-04T12:09:01.865Z,1021.4
2022-10-04T12:10:01.871Z,1021.4
2022-10-04T12:11:02.665Z,1021.5
2022-10-04T12:12:02.440Z,1021.4
2022-10-04T12:13:02.371Z,1021.5
2022-10-04T12:14:02.272Z,1021.4
2022-10-04T12:15:01.976Z,1021.5
2022-10-04T12:16:02.102Z,1021.4
2022-10-04T12:17:01.987Z,1021.4
2022-10-04T12:18:01.900Z,1021.5
2022-10-04T12:19:01.682Z,1021.5
2022-10-04T12:20:02.662Z,1021.5
2022-10-04T12:21:02.409Z,1021.5
2022-10-04T12:22:02.364Z,1021.4
2022-10-04T12:23:02.235Z,1021.6
2022-10-04T12:24:02.020Z,1021.4
2022-10-04T12:25:01.957Z,1021.5
2022-10-04T12:26:01.728Z,1021.5
2022-10-04T12:27:02.821Z,1021.5
2022-10-04T12:28:02.639Z,1021.5
2022-10-04T12:29:02.446Z,1021.5
2022-10-04T12:30:02.358Z,1021.5
2022-10-04T12:31:02.162Z,1021.4
2022-10-04T12:32:02.539Z,1021.4
2022-10-04T12:33:02.326Z,1021.4